createdAt,value
2019-03-16T00:01:12.768Z,8.5
2019-03-16T00:06:18.436Z,6.8
2019-03-16T00:11:23.886Z,8.4
2019-03-16T00:21:34.827Z,5.8
2019-03-16T00:26:40.624Z,6.5
2019-03-16T00:31:45.014Z,6.9
2019-03-16T00:36:50.203Z,5.4
2019-03-16T00:41:55.542Z,5.6
2019-03-16T00:46:59.208Z,7.4
2019-03-16T00:52:04.404Z,5.8
2019-03-16T00:57:09.930Z,5.7
2019-03-16T01:02:26.361Z,6.2
2019-03-16T01:07:24.220Z,4.7
2019-03-16T01:12:29.628Z,6.6
2019-03-16T01:17:34.625Z,5.9
2019-03-16T01:22:40.033Z,5.2
2019-03-16T01:27:45.587Z,7.3
2019-03-16T01:32:51.065Z,5.2
2019-03-16T01:37:56.132Z,4.3
2019-03-16T01:42:59.830Z,5.1
2019-03-16T01:48:05.090Z,4.9
2019-03-16T01:53:10.350Z,4.8
2019-03-16T01:58:15.887Z,4.9
2019-03-16T02:03:19.682Z,5.2
2019-03-16T02:08:25.183Z,5
2019-03-16T02:13:30.462Z,4.8
2019-03-16T02:18:35.831Z,5.5
2019-03-16T02:23:39.389Z,4.2
2019-03-16T02:28:44.657Z,4.7
2019-03-16T02:33:49.800Z,5.1
2019-03-16T02:38:55.378Z,5.3
2019-03-16T02:44:01.145Z,5.3
2019-03-16T02:49:06.439Z,5.1
2019-03-16T02:54:11.912Z,5.9
2019-03-16T02:59:17.573Z,5.1
2019-03-16T03:04:22.910Z,7.6
2019-03-16T03:09:28.076Z,6.9
2019-03-16T03:14:33.941Z,6.9
2019-03-16T03:19:38.960Z,8.1
2019-03-16T03:24:44.686Z,6
2019-03-16T03:29:50.302Z,7.3
2019-03-16T03:34:58.687Z,5.6
2019-03-16T03:40:04.436Z,7.8
2019-03-16T03:45:10.227Z,9.7
2019-03-16T03:50:15.775Z,5.4
2019-03-16T03:55:21.385Z,9.2
2019-03-16T04:00:25.209Z,7
2019-03-16T04:05:30.678Z,8.7
2019-03-16T04:10:36.048Z,7.8
2019-03-16T04:15:41.341Z,9.2
2019-03-16T04:20:47.716Z,8.7
2019-03-16T04:25:52.892Z,8.1
2019-03-16T04:30:57.067Z,6.6
2019-03-16T04:36:02.597Z,7.2
2019-03-16T04:41:08.091Z,7.7
2019-03-16T04:46:13.153Z,9.7
2019-03-16T04:51:18.220Z,9.4
2019-03-16T04:56:23.794Z,9.2
2019-03-16T05:01:28.810Z,7.4
2019-03-16T05:06:34.034Z,5.2
2019-03-16T05:11:37.838Z,4.6
2019-03-16T05:16:43.122Z,3.8
2019-03-16T05:21:48.294Z,5.9
2019-03-16T05:26:53.741Z,3.1
2019-03-16T05:31:59.157Z,2.4
2019-03-16T05:37:04.344Z,4.5
2019-03-16T05:42:09.437Z,2.7
2019-03-16T05:47:15.046Z,2.8
2019-03-16T05:52:20.228Z,3.2
2019-03-16T05:57:25.833Z,3.5
2019-03-16T06:02:30.881Z,3
2019-03-16T06:07:36.023Z,2.7
2019-03-16T06:12:39.999Z,2.9
2019-03-16T06:17:45.474Z,3.1
2019-03-16T06:22:50.557Z,2.8
2019-03-16T06:27:55.759Z,2.4
2019-03-16T06:33:01.057Z,3.1
2019-03-16T06:38:06.541Z,3.5
2019-03-16T06:43:11.540Z,1.9
2019-03-16T06:48:16.921Z,1.6
2019-03-16T06:53:22.002Z,2.1
2019-03-16T06:58:22.279Z,2.2
2019-03-16T07:03:27.204Z,1.7
2019-03-16T07:08:32.591Z,2
2019-03-16T07:13:38.860Z,1.9
2019-03-16T07:18:44.284Z,3.8
2019-03-16T07:23:52.898Z,2.8
2019-03-16T07:28:58.610Z,11.1
2019-03-16T07:34:04.165Z,2.5
2019-03-16T07:39:09.393Z,2.9
2019-03-16T07:44:15.057Z,2.9
2019-03-16T07:49:20.189Z,2.6
2019-03-16T07:54:25.654Z,1.5
2019-03-16T07:59:36.941Z,1.4
2019-03-16T08:04:43.573Z,1.7
2019-03-16T08:09:47.571Z,2.2
2019-03-16T08:14:52.649Z,1.8
2019-03-16T08:19:58.260Z,3.1
2019-03-16T08:25:03.306Z,3.2
2019-03-16T08:30:08.589Z,3.4
2019-03-16T08:35:13.966Z,3.7
2019-03-16T08:40:19.226Z,2.2
2019-03-16T08:45:24.392Z,1.8
2019-03-16T08:50:29.765Z,1.5
2019-03-16T08:55:34.874Z,2.5
2019-03-16T09:00:40.062Z,3.9
2019-03-16T09:05:45.445Z,2.7
2019-03-16T09:10:50.960Z,1.4
2019-03-16T09:15:56.248Z,2.4
2019-03-16T09:21:01.720Z,3.3
2019-03-16T09:26:06.857Z,6.3
2019-03-16T09:31:14.573Z,3.4
2019-03-16T09:36:20.118Z,5.2
2019-03-16T09:41:25.690Z,4.3
2019-03-16T09:46:30.732Z,4
2019-03-16T09:51:34.773Z,4.1
2019-03-16T09:56:38.945Z,5.5
2019-03-16T10:01:43.062Z,6.4
2019-03-16T10:06:50.186Z,3.7
2019-03-16T10:11:55.860Z,5.8
2019-03-16T10:17:01.087Z,5
2019-03-16T10:22:06.473Z,4.5
2019-03-16T10:27:12.001Z,3.5
2019-03-16T10:32:17.793Z,5.4
2019-03-16T10:37:23.381Z,4.5
2019-03-16T10:42:28.982Z,3.6
2019-03-16T10:47:32.498Z,5.6
2019-03-16T10:52:37.941Z,5.3
2019-03-16T10:57:46.236Z,4.5
2019-03-16T11:02:52.167Z,5
2019-03-16T11:07:57.422Z,4.6
2019-03-16T11:13:02.687Z,4.3
2019-03-16T11:18:08.078Z,6
2019-03-16T11:23:13.433Z,6.8
2019-03-16T11:28:18.885Z,3.6
2019-03-16T11:33:22.959Z,6.4
2019-03-16T11:38:29.111Z,6.2
2019-03-16T11:43:34.495Z,5.6
2019-03-16T11:48:39.996Z,3.9
2019-03-16T11:53:45.360Z,5
2019-03-16T11:58:50.432Z,8.1
2019-03-16T12:03:55.839Z,5.4
2019-03-16T12:09:01.069Z,4.9
2019-03-16T12:14:07.094Z,5.3
2019-03-16T12:19:12.242Z,6.8
2019-03-16T12:24:17.358Z,3.5
2019-03-16T12:29:33.050Z,3.8
2019-03-16T12:34:29.282Z,4.8
2019-03-16T12:39:35.593Z,3.7
2019-03-16T12:44:41.333Z,5.5
2019-03-16T12:49:46.746Z,7.3
2019-03-16T12:54:52.009Z,5.9
2019-03-16T12:59:57.015Z,6.3
2019-03-16T13:05:02.557Z,6.8
2019-03-16T13:10:07.863Z,6.1
2019-03-16T13:15:13.301Z,4.7
2019-03-16T13:20:18.502Z,4.9
2019-03-16T13:25:23.818Z,8.1
2019-03-16T13:30:28.856Z,5.3
2019-03-16T13:35:34.419Z,5.7
2019-03-16T13:40:39.826Z,3.9
2019-03-16T13:45:45.500Z,6.2
2019-03-16T13:50:50.643Z,6.2
2019-03-16T13:55:56.586Z,4.1
2019-03-16T14:01:01.763Z,5.9
2019-03-16T14:06:07.502Z,4.3
2019-03-16T14:11:13.133Z,3.3
2019-03-16T14:16:18.531Z,3.5
2019-03-16T14:21:23.697Z,3.7
2019-03-16T14:26:29.054Z,3.3
2019-03-16T14:31:34.656Z,6
2019-03-16T14:36:39.915Z,5.6
2019-03-16T14:41:43.689Z,6.4
2019-03-16T14:46:49.444Z,7.6
2019-03-16T14:51:54.570Z,4.5
2019-03-16T14:57:01.902Z,6
2019-03-16T15:02:07.698Z,6
2019-03-16T15:07:11.570Z,4.8
2019-03-16T15:12:17.115Z,5.3
2019-03-16T15:17:25.363Z,9.5
2019-03-16T15:22:31.061Z,7.2
2019-03-16T15:27:34.996Z,7.6
2019-03-16T15:32:40.499Z,6
2019-03-16T15:37:45.848Z,6.2
2019-03-16T15:42:51.037Z,6.9
2019-03-16T15:47:56.667Z,7
2019-03-16T15:53:02.107Z,5.4
2019-03-16T15:58:08.647Z,5.4
2019-03-16T16:03:12.343Z,4.6
2019-03-16T16:08:19.315Z,5.5
2019-03-16T16:13:24.993Z,6.1
2019-03-16T16:18:30.387Z,6.4
2019-03-16T16:23:35.622Z,5.7
2019-03-16T16:28:40.047Z,5.8
2019-03-16T16:33:45.512Z,5.9
2019-03-16T16:38:49.304Z,7.7
2019-03-16T16:43:54.332Z,11.1
2019-03-16T16:48:59.577Z,10.3
2019-03-16T16:54:06.001Z,8.8
2019-03-16T16:59:11.261Z,9.2
2019-03-16T17:04:16.583Z,9.2
2019-03-16T17:09:21.671Z,6.1
2019-03-16T17:14:27.254Z,8.3
2019-03-16T17:19:32.845Z,7
2019-03-16T17:24:37.844Z,8.8
2019-03-16T17:29:43.881Z,14.9
2019-03-16T17:34:49.176Z,10.8
2019-03-16T17:39:53.292Z,7.1
2019-03-16T17:44:58.414Z,7.3
2019-03-16T17:50:03.935Z,15.4
2019-03-16T17:55:09.634Z,13.9
2019-03-16T18:00:15.008Z,14.6
2019-03-16T18:05:20.185Z,14.2
2019-03-16T18:10:25.795Z,13.7
2019-03-16T18:15:31.309Z,18.2
2019-03-16T18:20:36.653Z,18.3
2019-03-16T18:25:42.044Z,17.5
2019-03-16T18:30:47.280Z,18.6
2019-03-16T18:35:52.747Z,11.7
2019-03-16T18:40:58.152Z,14.8
2019-03-16T18:46:03.364Z,12.6
2019-03-16T18:51:08.706Z,10.4
2019-03-16T18:56:12.572Z,16.4
2019-03-16T19:01:19.595Z,18.9
2019-03-16T19:06:24.864Z,16.7
2019-03-16T19:11:28.950Z,16
2019-03-16T19:16:34.504Z,20.5
2019-03-16T19:21:42.468Z,15.9
2019-03-16T19:26:51.794Z,14.5
2019-03-16T19:31:57.180Z,13.6
2019-03-16T19:37:02.287Z,15.8
2019-03-16T19:42:07.617Z,13
2019-03-16T19:47:12.741Z,16
2019-03-16T19:52:17.928Z,14
2019-03-16T19:57:23.200Z,16.6
2019-03-16T20:02:28.432Z,16.8
2019-03-16T20:07:32.530Z,17
2019-03-16T20:12:37.832Z,16.6
2019-03-16T20:17:43.689Z,15.6
2019-03-16T20:22:49.074Z,16.5
2019-03-16T20:27:53.198Z,14.4
2019-03-16T20:33:03.586Z,15.6
2019-03-16T20:37:59.677Z,12.2
2019-03-16T20:43:03.260Z,16.2
2019-03-16T20:48:08.603Z,15.7
2019-03-16T20:53:14.037Z,15.2
2019-03-16T20:58:19.414Z,16.6
2019-03-16T21:03:24.734Z,19.7
2019-03-16T21:08:30.212Z,19.6
2019-03-16T21:13:35.608Z,20.7
2019-03-16T21:18:41.752Z,17.8
2019-03-16T21:23:47.109Z,15.8
2019-03-16T21:28:52.823Z,17.2
2019-03-16T21:33:58.304Z,16.7
2019-03-16T21:39:03.438Z,12.2
2019-03-16T21:44:09.036Z,12.5
2019-03-16T21:49:13.341Z,13.3
2019-03-16T21:54:18.732Z,10.8
2019-03-16T21:59:26.277Z,12.5
2019-03-16T22:04:33.071Z,11.8
2019-03-16T22:09:38.204Z,11.3
2019-03-16T22:14:43.463Z,15.7
2019-03-16T22:19:48.873Z,9.1
2019-03-16T22:24:52.659Z,9.2
2019-03-16T22:29:57.803Z,10.5
2019-03-16T22:35:03.587Z,9.3
2019-03-16T22:40:12.194Z,10.5
2019-03-16T22:45:17.448Z,10.8
2019-03-16T22:50:22.816Z,8.5
2019-03-16T22:55:28.027Z,9.5
2019-03-16T23:00:33.173Z,13.8
2019-03-16T23:05:39.613Z,8.9
2019-03-16T23:10:44.748Z,10.1
2019-03-16T23:15:49.869Z,10.1
2019-03-16T23:20:54.801Z,8.2
2019-03-16T23:26:00.180Z,8.8
2019-03-16T23:31:05.326Z,10
2019-03-16T23:36:46.069Z,10
2019-03-16T23:41:51.536Z,9.3
2019-03-16T23:46:56.889Z,8.9
2019-03-16T23:52:02.041Z,10.2
2019-03-16T23:57:07.397Z,9.7
